createdAt,value
2023-02-08T00:00:55.395Z,100.00
2023-02-08T00:03:21.774Z,100.00
2023-02-08T00:05:48.205Z,100.00
2023-02-08T00:08:14.474Z,100.00
2023-02-08T00:10:41.039Z,100.00
2023-02-08T00:13:08.050Z,100.00
2023-02-08T00:15:34.367Z,100.00
2023-02-08T00:18:00.639Z,100.00
2023-02-08T00:20:26.928Z,100.00
2023-02-08T00:22:53.527Z,100.00
2023-02-08T00:25:20.020Z,100.00
2023-02-08T00:27:46.310Z,100.00
2023-02-08T00:30:12.657Z,100.00
2023-02-08T00:32:38.971Z,100.00
2023-02-08T00:35:05.457Z,100.00
2023-02-08T00:37:31.808Z,100.00
2023-02-08T00:39:58.087Z,100.00
2023-02-08T00:42:24.422Z,100.00
2023-02-08T00:44:50.686Z,100.00
2023-02-08T00:47:16.962Z,100.00
2023-02-08T00:49:43.230Z,100.00
2023-02-08T00:52:09.523Z,100.00
2023-02-08T00:54:35.802Z,100.00
2023-02-08T00:57:02.103Z,100.00
2023-02-08T00:59:28.356Z,100.00
2023-02-08T01:01:54.724Z,100.00
2023-02-08T01:04:21.041Z,100.00
2023-02-08T01:06:47.348Z,100.00
2023-02-08T01:09:13.670Z,100.00
2023-02-08T01:11:39.962Z,100.00
2023-02-08T01:14:06.313Z,100.00
2023-02-08T01:16:34.161Z,100.00
2023-02-08T01:19:02.189Z,100.00
2023-02-08T01:21:29.916Z,100.00
2023-02-08T01:23:56.594Z,100.00
2023-02-08T01:26:24.651Z,100.00
2023-02-08T01:28:51.192Z,100.00
2023-02-08T01:31:21.163Z,100.00
2023-02-08T01:33:48.022Z,100.00
2023-02-08T01:36:14.749Z,100.00
2023-02-08T01:38:41.079Z,100.00
2023-02-08T01:41:13.962Z,100.00
2023-02-08T01:44:01.135Z,100.00
2023-02-08T01:46:28.712Z,100.00
2023-02-08T01:48:59.336Z,100.00
2023-02-08T01:51:30.328Z,100.00
2023-02-08T01:53:57.939Z,100.00
2023-02-08T01:56:32.431Z,100.00
2023-02-08T01:59:01.638Z,100.00
2023-02-08T02:01:31.038Z,100.00
2023-02-08T02:04:05.716Z,100.00
2023-02-08T02:06:36.941Z,100.00
2023-02-08T02:09:26.549Z,100.00
2023-02-08T02:11:54.500Z,100.00
2023-02-08T02:14:21.305Z,100.00
2023-02-08T02:16:47.917Z,100.00
2023-02-08T02:19:29.406Z,100.00
2023-02-08T02:22:21.846Z,100.00
2023-02-08T02:24:54.118Z,100.00
2023-02-08T02:27:40.626Z,100.00
2023-02-08T02:30:40.205Z,100.00
2023-02-08T02:33:10.950Z,100.00
2023-02-08T02:35:45.990Z,100.00
2023-02-08T02:38:15.172Z,100.00
2023-02-08T02:40:48.187Z,100.00
2023-02-08T02:43:23.498Z,100.00
2023-02-08T02:46:03.025Z,100.00
2023-02-08T02:48:46.903Z,100.00
2023-02-08T02:51:27.341Z,100.00
2023-02-08T02:54:16.784Z,100.00
2023-02-08T02:56:46.737Z,100.00
2023-02-08T02:59:15.661Z,100.00
2023-02-08T03:01:44.291Z,100.00
2023-02-08T03:04:16.258Z,100.00
2023-02-08T03:06:48.234Z,100.00
2023-02-08T03:09:55.423Z,100.00
2023-02-08T03:12:38.557Z,100.00
2023-02-08T03:15:40.732Z,100.00
2023-02-08T03:18:33.320Z,100.00
2023-02-08T03:21:16.737Z,100.00
2023-02-08T03:23:56.149Z,100.00
2023-02-08T03:26:38.273Z,100.00
2023-02-08T03:29:35.665Z,100.00
2023-02-08T03:32:17.568Z,100.00
2023-02-08T03:34:53.498Z,100.00
2023-02-08T03:37:27.292Z,100.00
2023-02-08T03:40:01.559Z,100.00
2023-02-08T03:42:30.585Z,100.00
2023-02-08T03:45:05.534Z,100.00
2023-02-08T03:47:39.724Z,100.00
2023-02-08T03:50:11.742Z,100.00
2023-02-08T03:52:39.443Z,100.00
2023-02-08T03:55:13.636Z,100.00
2023-02-08T03:57:46.370Z,100.00
2023-02-08T04:00:16.465Z,100.00
2023-02-08T04:02:51.068Z,100.00
2023-02-08T04:05:18.467Z,100.00
2023-02-08T04:07:44.914Z,100.00
2023-02-08T04:10:11.352Z,100.00
2023-02-08T04:12:37.668Z,100.00
2023-02-08T04:15:04.255Z,100.00
2023-02-08T04:17:30.543Z,100.00
2023-02-08T04:19:56.818Z,100.00
2023-02-08T04:22:23.192Z,100.00
2023-02-08T04:24:49.504Z,100.00
2023-02-08T04:27:15.769Z,100.00
2023-02-08T04:29:42.048Z,100.00
2023-02-08T04:32:08.468Z,100.00
2023-02-08T04:34:34.756Z,100.00
2023-02-08T04:37:01.031Z,100.00
2023-02-08T04:39:27.320Z,100.00
2023-02-08T04:41:53.600Z,100.00
2023-02-08T04:44:19.871Z,100.00
2023-02-08T04:46:46.204Z,100.00
2023-02-08T04:49:12.724Z,100.00
2023-02-08T04:51:39.069Z,100.00
2023-02-08T04:54:05.391Z,100.00
2023-02-08T04:56:31.668Z,100.00
2023-02-08T04:58:58.168Z,100.00
2023-02-08T05:01:24.615Z,100.00
2023-02-08T05:03:50.951Z,100.00
2023-02-08T05:06:17.500Z,100.00
2023-02-08T05:08:43.822Z,100.00
2023-02-08T05:11:10.153Z,100.00
2023-02-08T05:13:36.425Z,100.00
2023-02-08T05:16:03.033Z,100.00
2023-02-08T05:18:29.341Z,100.00
2023-02-08T05:21:00.540Z,100.00
2023-02-08T05:23:27.977Z,100.00
2023-02-08T05:25:54.242Z,100.00
2023-02-08T05:28:20.620Z,100.00
2023-02-08T05:30:47.051Z,100.00
2023-02-08T05:33:13.921Z,100.00
2023-02-08T05:35:40.727Z,100.00
2023-02-08T05:38:07.110Z,100.00
2023-02-08T05:40:34.171Z,100.00
2023-02-08T05:43:00.464Z,100.00
2023-02-08T05:45:26.811Z,100.00
2023-02-08T05:47:53.114Z,100.00
2023-02-08T05:50:19.654Z,100.00
2023-02-08T05:52:45.928Z,100.00
2023-02-08T05:55:12.220Z,100.00
2023-02-08T05:57:38.526Z,100.00
2023-02-08T06:00:06.240Z,100.00
2023-02-08T06:02:32.676Z,100.00
2023-02-08T06:04:58.929Z,100.00
2023-02-08T06:07:25.304Z,100.00
2023-02-08T06:09:51.591Z,100.00
2023-02-08T06:12:17.864Z,100.00
2023-02-08T06:14:44.163Z,100.00
2023-02-08T06:17:10.465Z,100.00
2023-02-08T06:19:36.725Z,100.00
2023-02-08T06:22:03.049Z,100.00
2023-02-08T06:24:29.327Z,100.00
2023-02-08T06:26:56.735Z,100.00
2023-02-08T06:29:23.084Z,100.00
2023-02-08T06:31:49.467Z,100.00
2023-02-08T06:34:16.841Z,100.00
2023-02-08T06:36:43.135Z,100.00
2023-02-08T06:39:09.408Z,100.00
2023-02-08T06:41:35.713Z,100.00
2023-02-08T06:44:02.001Z,100.00
2023-02-08T06:46:28.388Z,100.00
2023-02-08T06:48:54.700Z,100.00
2023-02-08T06:51:21.066Z,100.00
2023-02-08T06:53:47.348Z,100.00
2023-02-08T06:56:13.636Z,100.00
2023-02-08T06:58:39.919Z,100.00
2023-02-08T07:01:06.248Z,100.00
2023-02-08T07:03:32.512Z,100.00
2023-02-08T07:06:04.897Z,100.00
2023-02-08T07:08:32.991Z,100.00
2023-02-08T07:10:59.291Z,100.00
2023-02-08T07:13:25.685Z,100.00
2023-02-08T07:15:52.028Z,100.00
2023-02-08T07:18:18.293Z,100.00
2023-02-08T07:20:44.579Z,100.00
2023-02-08T07:23:10.899Z,100.00
2023-02-08T07:25:37.173Z,100.00
2023-02-08T07:28:03.783Z,100.00
2023-02-08T07:30:30.123Z,100.00
2023-02-08T07:32:56.448Z,100.00
2023-02-08T07:35:22.816Z,100.00
2023-02-08T07:37:49.106Z,100.00
2023-02-08T07:40:15.497Z,100.00
2023-02-08T07:42:41.801Z,100.00
2023-02-08T07:45:08.319Z,100.00
2023-02-08T07:47:34.598Z,100.00
2023-02-08T07:50:00.930Z,100.00
2023-02-08T07:52:27.212Z,100.00
2023-02-08T07:54:53.528Z,100.00
2023-02-08T07:57:19.783Z,100.00
2023-02-08T07:59:46.127Z,100.00
2023-02-08T08:02:14.867Z,100.00
2023-02-08T08:04:41.154Z,100.00
2023-02-08T08:07:07.443Z,100.00
2023-02-08T08:09:33.848Z,100.00
2023-02-08T08:12:00.133Z,100.00
2023-02-08T08:14:26.416Z,100.00
2023-02-08T08:16:52.675Z,100.00
2023-02-08T08:19:19.352Z,100.00
2023-02-08T08:21:45.625Z,100.00
2023-02-08T08:24:11.910Z,100.00
2023-02-08T08:26:38.546Z,100.00
2023-02-08T08:29:05.062Z,100.00
2023-02-08T08:31:31.447Z,100.00
2023-02-08T08:33:57.787Z,100.00
2023-02-08T08:36:24.069Z,100.00
2023-02-08T08:38:51.383Z,100.00
2023-02-08T08:41:17.724Z,100.00
2023-02-08T08:43:44.545Z,100.00
2023-02-08T08:46:11.068Z,100.00
2023-02-08T08:48:37.547Z,100.00
2023-02-08T08:51:04.558Z,100.00
2023-02-08T08:53:30.901Z,100.00
2023-02-08T08:55:57.222Z,100.00
2023-02-08T08:58:23.528Z,100.00
2023-02-08T09:00:50.710Z,100.00
2023-02-08T09:03:17.159Z,100.00
2023-02-08T09:05:43.470Z,100.00
2023-02-08T09:08:09.787Z,100.00
2023-02-08T09:10:36.061Z,100.00
2023-02-08T09:13:02.425Z,100.00
2023-02-08T09:15:28.751Z,100.00
2023-02-08T09:17:55.641Z,100.00
2023-02-08T09:20:21.984Z,100.00
2023-02-08T09:22:48.291Z,100.00
2023-02-08T09:25:14.674Z,100.00
2023-02-08T09:27:40.971Z,100.00
2023-02-08T09:30:08.190Z,100.00
2023-02-08T09:32:34.698Z,100.00
2023-02-08T09:35:01.034Z,100.00
2023-02-08T09:37:27.357Z,97.69
2023-02-08T09:39:53.732Z,97.19
2023-02-08T09:42:33.850Z,96.63
2023-02-08T09:45:21.509Z,96.05
2023-02-08T09:47:56.852Z,95.83
2023-02-08T09:50:32.471Z,96.08
2023-02-08T09:53:19.648Z,95.70
2023-02-08T09:56:15.478Z,98.95
2023-02-08T09:58:49.703Z,100.00
2023-02-08T10:01:24.042Z,99.09
2023-02-08T10:03:55.652Z,96.73
2023-02-08T10:06:22.200Z,98.14
2023-02-08T10:08:51.147Z,96.43
2023-02-08T10:11:52.951Z,94.66
2023-02-08T10:14:31.228Z,98.92
2023-02-08T10:17:06.843Z,100.00
2023-02-08T10:19:53.387Z,100.00
2023-02-08T10:22:31.468Z,100.00
2023-02-08T10:25:16.089Z,100.00
2023-02-08T10:27:49.574Z,100.00
2023-02-08T10:30:18.750Z,100.00
2023-02-08T10:32:54.697Z,100.00
2023-02-08T10:35:35.285Z,100.00
2023-02-08T10:38:01.561Z,100.00
2023-02-08T10:40:39.509Z,100.00
2023-02-08T10:43:29.811Z,100.00
2023-02-08T10:46:25.578Z,100.00
2023-02-08T10:49:30.182Z,100.00
2023-02-08T10:51:56.521Z,100.00
2023-02-08T10:54:22.872Z,100.00
2023-02-08T10:56:58.039Z,100.00
2023-02-08T10:59:49.545Z,100.00
2023-02-08T11:02:24.943Z,100.00
2023-02-08T11:05:11.911Z,100.00
2023-02-08T11:07:38.895Z,99.27
2023-02-08T11:10:25.689Z,97.60
2023-02-08T11:13:25.390Z,95.40
2023-02-08T11:16:00.937Z,93.70
2023-02-08T11:18:47.083Z,95.47
2023-02-08T11:21:31.904Z,95.89
2023-02-08T11:23:58.562Z,90.93
2023-02-08T11:26:30.580Z,93.16
2023-02-08T11:29:02.303Z,93.33
2023-02-08T11:31:29.585Z,94.45
2023-02-08T11:34:10.148Z,92.64
2023-02-08T11:36:43.017Z,93.22
2023-02-08T11:39:18.484Z,92.00
2023-02-08T11:41:49.832Z,90.75
2023-02-08T11:44:27.586Z,91.28
2023-02-08T11:46:55.784Z,92.17
2023-02-08T11:49:25.520Z,94.42
2023-02-08T11:51:52.933Z,94.58
2023-02-08T11:54:45.824Z,93.88
2023-02-08T11:57:21.011Z,91.42
2023-02-08T11:59:49.636Z,89.34
2023-02-08T12:02:37.064Z,86.90
2023-02-08T12:05:09.816Z,85.24
2023-02-08T12:07:59.479Z,83.13
2023-02-08T12:11:01.715Z,81.39
2023-02-08T12:13:54.179Z,82.76
2023-02-08T12:16:39.246Z,80.08
2023-02-08T12:20:03.423Z,80.03
2023-02-08T12:22:31.370Z,82.21
2023-02-08T12:25:15.213Z,82.00
2023-02-08T12:28:05.873Z,76.48
2023-02-08T12:31:09.330Z,75.04
2023-02-08T12:33:44.807Z,72.47
2023-02-08T12:36:31.287Z,72.74
2023-02-08T12:39:19.914Z,75.42
2023-02-08T12:42:05.093Z,72.06
2023-02-08T12:44:56.147Z,75.02
2023-02-08T12:47:34.275Z,75.27
2023-02-08T12:50:06.640Z,74.68
2023-02-08T12:52:38.296Z,76.46
2023-02-08T12:55:19.738Z,77.27
2023-02-08T12:57:51.659Z,75.78
2023-02-08T13:00:23.216Z,74.53
2023-02-08T13:03:16.370Z,71.86
2023-02-08T13:06:01.348Z,72.44
2023-02-08T13:08:44.872Z,72.88
2023-02-08T13:11:20.009Z,70.54
2023-02-08T13:14:06.537Z,73.20
2023-02-08T13:16:41.701Z,70.96
2023-02-08T13:19:23.818Z,72.04
2023-02-08T13:21:52.223Z,74.51
2023-02-08T13:24:36.608Z,73.65
2023-02-08T13:27:03.703Z,75.27
2023-02-08T13:29:30.350Z,78.90
2023-02-08T13:32:03.288Z,80.79
2023-02-08T13:35:22.232Z,84.40
2023-02-08T13:37:58.555Z,87.09
2023-02-08T13:40:27.826Z,84.70
2023-02-08T13:43:00.977Z,85.36
2023-02-08T13:45:33.937Z,86.78
2023-02-08T13:48:03.128Z,86.70
2023-02-08T13:50:40.957Z,83.18
2023-02-08T13:53:07.448Z,83.29
2023-02-08T13:55:50.934Z,88.03
2023-02-08T13:58:17.226Z,80.33
2023-02-08T14:00:55.731Z,79.44
2023-02-08T14:03:27.615Z,77.14
2023-02-08T14:06:06.377Z,76.92
2023-02-08T14:08:38.725Z,77.61
2023-02-08T14:11:14.190Z,78.36
2023-02-08T14:13:50.531Z,80.58
2023-02-08T14:16:34.945Z,80.23
2023-02-08T14:19:04.740Z,79.57
2023-02-08T14:21:42.840Z,81.51
2023-02-08T14:24:24.276Z,81.81
2023-02-08T14:26:51.564Z,81.98
2023-02-08T14:29:24.184Z,79.70
2023-02-08T14:31:51.071Z,81.20
2023-02-08T14:34:27.826Z,81.76
2023-02-08T14:37:06.477Z,81.58
2023-02-08T14:39:34.890Z,82.40
2023-02-08T14:42:02.882Z,82.59
2023-02-08T14:44:37.957Z,79.78
2023-02-08T14:47:24.553Z,81.30
2023-02-08T14:50:01.256Z,81.78
2023-02-08T14:52:29.429Z,84.92
2023-02-08T14:55:01.662Z,85.41
2023-02-08T14:57:35.080Z,85.61
2023-02-08T15:00:07.899Z,85.89
2023-02-08T15:02:40.915Z,85.03
2023-02-08T15:05:20.061Z,85.37
2023-02-08T15:07:59.982Z,86.18
2023-02-08T15:10:28.095Z,87.61
2023-02-08T15:12:57.460Z,87.34
2023-02-08T15:15:25.814Z,87.83
2023-02-08T15:17:54.668Z,88.22
2023-02-08T15:20:24.523Z,88.49
2023-02-08T15:23:18.194Z,89.72
2023-02-08T15:25:57.670Z,90.41
2023-02-08T15:28:26.087Z,90.08
2023-02-08T15:30:56.887Z,90.70
2023-02-08T15:33:23.399Z,93.68
2023-02-08T15:36:08.820Z,93.71
2023-02-08T15:38:37.726Z,95.71
2023-02-08T15:41:08.484Z,98.11
2023-02-08T15:43:36.324Z,99.49
2023-02-08T15:46:05.865Z,100.00
2023-02-08T15:48:33.577Z,100.00
2023-02-08T15:51:00.824Z,100.00
2023-02-08T15:53:27.967Z,100.00
2023-02-08T15:56:02.220Z,100.00
2023-02-08T15:58:34.433Z,100.00
2023-02-08T16:01:03.459Z,100.00
2023-02-08T16:03:31.048Z,100.00
2023-02-08T16:06:07.168Z,100.00
2023-02-08T16:08:41.632Z,100.00
2023-02-08T16:11:21.463Z,100.00
2023-02-08T16:13:51.423Z,100.00
2023-02-08T16:16:42.298Z,100.00
2023-02-08T16:19:20.764Z,100.00
2023-02-08T16:21:47.318Z,100.00
2023-02-08T16:24:13.554Z,100.00
2023-02-08T16:26:55.496Z,100.00
2023-02-08T16:29:31.060Z,100.00
2023-02-08T16:32:12.605Z,100.00
2023-02-08T16:34:40.141Z,100.00
2023-02-08T16:37:19.295Z,100.00
2023-02-08T16:39:51.707Z,100.00
2023-02-08T16:42:23.264Z,100.00
2023-02-08T16:45:07.590Z,100.00
2023-02-08T16:47:46.391Z,100.00
2023-02-08T16:50:16.421Z,100.00
2023-02-08T16:52:42.820Z,100.00
2023-02-08T16:55:17.954Z,100.00
2023-02-08T16:57:50.771Z,100.00
2023-02-08T17:00:20.963Z,100.00
2023-02-08T17:02:47.776Z,100.00
2023-02-08T17:05:14.924Z,100.00
2023-02-08T17:07:41.284Z,100.00
2023-02-08T17:10:11.781Z,100.00
2023-02-08T17:12:38.055Z,100.00
2023-02-08T17:15:04.654Z,100.00
2023-02-08T17:17:31.020Z,100.00
2023-02-08T17:19:57.302Z,100.00
2023-02-08T17:22:23.689Z,100.00
2023-02-08T17:24:49.963Z,100.00
2023-02-08T17:27:16.242Z,100.00
2023-02-08T17:29:42.572Z,100.00
2023-02-08T17:32:08.888Z,100.00
2023-02-08T17:34:35.163Z,100.00
2023-02-08T17:37:01.456Z,100.00
2023-02-08T17:39:27.728Z,100.00
2023-02-08T17:41:54.013Z,100.00
2023-02-08T17:44:20.306Z,100.00
2023-02-08T17:46:46.578Z,100.00
2023-02-08T17:49:12.873Z,100.00
2023-02-08T17:51:39.170Z,100.00
2023-02-08T17:54:05.533Z,100.00
2023-02-08T17:56:31.842Z,100.00
2023-02-08T17:58:58.116Z,100.00
2023-02-08T18:01:26.946Z,100.00
2023-02-08T18:03:53.691Z,100.00
2023-02-08T18:06:20.870Z,100.00
2023-02-08T18:08:47.198Z,100.00
2023-02-08T18:11:16.403Z,100.00
2023-02-08T18:13:42.679Z,100.00
2023-02-08T18:16:11.613Z,100.00
2023-02-08T18:18:38.052Z,100.00
2023-02-08T18:21:12.831Z,100.00
2023-02-08T18:23:39.784Z,100.00
2023-02-08T18:26:09.520Z,100.00
2023-02-08T18:28:36.040Z,100.00
2023-02-08T18:31:08.783Z,100.00
2023-02-08T18:33:36.046Z,100.00
2023-02-08T18:36:03.347Z,100.00
2023-02-08T18:38:29.674Z,100.00
2023-02-08T18:40:55.943Z,100.00
2023-02-08T18:43:22.230Z,100.00
2023-02-08T18:46:02.802Z,100.00
2023-02-08T18:48:29.119Z,100.00
2023-02-08T18:50:56.865Z,100.00
2023-02-08T18:53:25.276Z,100.00
2023-02-08T18:55:55.450Z,100.00
2023-02-08T18:58:22.821Z,100.00
2023-02-08T19:00:49.961Z,100.00
2023-02-08T19:03:18.001Z,100.00
2023-02-08T19:05:45.397Z,100.00
2023-02-08T19:08:12.914Z,100.00
2023-02-08T19:10:40.449Z,100.00
2023-02-08T19:13:07.393Z,100.00
2023-02-08T19:15:40.491Z,100.00
2023-02-08T19:18:07.659Z,100.00
2023-02-08T19:20:36.091Z,100.00
2023-02-08T19:23:03.884Z,100.00
2023-02-08T19:25:30.738Z,100.00
2023-02-08T19:27:57.092Z,100.00
2023-02-08T19:30:23.394Z,100.00
2023-02-08T19:32:49.793Z,100.00
2023-02-08T19:35:16.117Z,100.00
2023-02-08T19:37:42.423Z,100.00
2023-02-08T19:40:09.793Z,100.00
2023-02-08T19:42:36.171Z,100.00
2023-02-08T19:45:02.836Z,100.00
2023-02-08T19:47:48.537Z,100.00
2023-02-08T19:50:15.533Z,100.00
2023-02-08T19:52:41.811Z,100.00
2023-02-08T19:55:09.532Z,100.00
2023-02-08T19:57:39.800Z,100.00
2023-02-08T20:00:17.678Z,100.00
2023-02-08T20:02:49.111Z,100.00
2023-02-08T20:05:15.418Z,100.00
2023-02-08T20:07:41.797Z,100.00
2023-02-08T20:10:08.916Z,100.00
2023-02-08T20:12:35.241Z,100.00
2023-02-08T20:15:01.708Z,100.00
2023-02-08T20:17:28.004Z,100.00
2023-02-08T20:19:54.303Z,100.00
2023-02-08T20:22:20.582Z,100.00
2023-02-08T20:24:46.871Z,100.00
2023-02-08T20:27:13.166Z,100.00
2023-02-08T20:29:39.454Z,100.00
2023-02-08T20:32:05.815Z,100.00
2023-02-08T20:34:32.181Z,100.00
2023-02-08T20:37:07.473Z,100.00
2023-02-08T20:39:36.027Z,100.00
2023-02-08T20:42:02.365Z,100.00
2023-02-08T20:44:28.750Z,100.00
2023-02-08T20:46:55.119Z,100.00
2023-02-08T20:49:21.475Z,100.00
2023-02-08T20:51:50.697Z,100.00
2023-02-08T20:54:17.052Z,100.00
2023-02-08T20:56:43.355Z,100.00
